Time;durP1;ratioP1;P1;durP2;ratioP2;P2;SDS_P1;SDS_P2;PMS_P1;PMS_P2;Temp;Humidity;BMP_temperature;BMP_pressure;BME280_temperature;BME280_humidity;BME280_pressure;Samples;Min_cycle;Max_cycle;Signal;HPM_P1;HPM_P2
2022/06/30 00:00:52;;;;;;;9.63;6.07;;;17.00;99.90;;;;;;5013689;28;20240;-60
2022/06/30 00:03:18;;;;;;;9.55;5.90;;;17.00;99.90;;;;;;5013908;28;20061;-60
2022/06/30 00:05:45;;;;;;;8.07;5.65;;;17.00;99.90;;;;;;5014083;28;20056;-60
2022/06/30 00:08:12;;;;;;;7.00;5.03;;;17.00;99.90;;;;;;5013943;28;20050;-60
2022/06/30 00:10:39;;;;;;;11.55;6.15;;;17.00;99.90;;;;;;5013425;28;20728;-60
2022/06/30 00:13:06;;;;;;;6.72;5.32;;;17.00;99.90;;;;;;5012976;28;20494;-59
2022/06/30 00:15:35;;;;;;;6.82;5.38;;;16.90;99.90;;;;;;5014097;28;20041;-60
2022/06/30 00:18:02;;;;;;;5.55;4.82;;;17.00;99.90;;;;;;5013061;28;20967;-59
2022/06/30 00:20:29;;;;;;;7.45;5.32;;;16.90;99.90;;;;;;5012449;28;20052;-61
2022/06/30 00:22:56;;;;;;;7.45;5.70;;;17.00;99.90;;;;;;5013519;28;20037;-60
2022/06/30 00:25:23;;;;;;;;;;;17.00;99.90;;;;;;5013979;28;20054;-59
2022/06/30 00:27:49;;;;;;;8.77;6.07;;;17.00;99.90;;;;;;5012929;28;19924;-61
2022/06/30 00:30:17;;;;;;;8.13;6.10;;;16.90;99.90;;;;;;5008614;28;20042;-60
2022/06/30 00:32:43;;;;;;;10.05;5.88;;;16.90;99.90;;;;;;5009584;28;20041;-60
2022/06/30 00:35:10;;;;;;;7.20;5.50;;;17.00;99.90;;;;;;5012899;28;20049;-60
2022/06/30 00:37:37;;;;;;;7.35;5.38;;;16.90;99.90;;;;;;5013541;28;20965;-61
2022/06/30 00:40:04;;;;;;;;;;;16.90;99.90;;;;;;5013279;28;20041;-59
2022/06/30 00:42:31;;;;;;;6.23;5.43;;;16.90;99.90;;;;;;5013035;28;20189;-60
2022/06/30 00:44:58;;;;;;;8.43;6.50;;;16.90;99.90;;;;;;5012390;28;20053;-59
2022/06/30 00:47:26;;;;;;;9.90;6.28;;;16.90;99.90;;;;;;5013290;28;20049;-60
2022/06/30 00:49:53;;;;;;;11.52;6.68;;;16.90;99.90;;;;;;5013109;28;20072;-60
2022/06/30 00:52:21;;;;;;;6.18;5.60;;;16.80;99.90;;;;;;5013661;28;20053;-60
2022/06/30 00:54:50;;;;;;;8.88;6.20;;;16.80;99.90;;;;;;5013484;28;20045;-59
2022/06/30 00:57:18;;;;;;;8.02;6.45;;;16.80;99.90;;;;;;5013380;28;20037;-60
2022/06/30 00:59:48;;;;;;;12.55;7.25;;;16.80;99.90;;;;;;5011871;28;20057;-61
2022/06/30 01:02:16;;;;;;;8.38;6.00;;;16.80;99.90;;;;;;5011465;28;20117;-60
2022/06/30 01:04:46;;;;;;;11.82;6.28;;;16.80;99.90;;;;;;5012791;28;20047;-60
2022/06/30 01:07:16;;;;;;;6.72;6.00;;;16.70;99.90;;;;;;5012705;28;20059;-60
2022/06/30 01:12:43;;;;;;;6.28;5.68;;;16.70;99.90;;;;;;5012127;28;20057;-61
2022/06/30 01:15:16;;;;;;;6.72;5.68;;;16.70;99.90;;;;;;5013183;28;20073;-60
2022/06/30 01:17:44;;;;;;;9.25;6.63;;;16.70;99.90;;;;;;5012502;28;20037;-60
2022/06/30 01:20:12;;;;;;;10.82;6.65;;;16.70;99.90;;;;;;5013074;28;20099;-61
2022/06/30 01:22:40;;;;;;;9.60;6.85;;;16.70;99.90;;;;;;5011514;28;20563;-60
2022/06/30 01:25:08;;;;;;;12.13;6.25;;;16.70;99.90;;;;;;5013006;28;20045;-60
2022/06/30 01:27:35;;;;;;;8.27;6.22;;;16.70;99.90;;;;;;5012785;28;20593;-60
2022/06/30 01:30:03;;;;;;;6.05;5.45;;;16.70;99.90;;;;;;5010255;28;20072;-61
2022/06/30 01:32:30;;;;;;;6.22;5.63;;;16.70;99.90;;;;;;5010223;28;20053;-60
2022/06/30 01:34:57;;;;;;;7.55;6.22;;;16.70;99.90;;;;;;5009177;28;20069;-60
2022/06/30 01:37:25;;;;;;;7.00;5.88;;;16.70;99.90;;;;;;5012641;28;20064;-60
2022/06/30 01:39:52;;;;;;;5.80;5.30;;;16.70;99.90;;;;;;5012255;28;20041;-60
2022/06/30 01:42:20;;;;;;;8.52;6.07;;;16.60;99.90;;;;;;5012298;28;20133;-60
2022/06/30 01:44:47;;;;;;;6.07;5.18;;;16.60;99.90;;;;;;5012395;28;21002;-60
2022/06/30 01:47:14;;;;;;;5.80;5.20;;;16.60;99.90;;;;;;5012877;28;20691;-60
2022/06/30 01:49:41;;;;;;;6.25;5.28;;;16.60;99.90;;;;;;5012500;28;20087;-60
2022/06/30 01:52:07;;;;;;;;;;;16.50;99.90;;;;;;5011669;28;20370;-60
2022/06/30 01:54:34;;;;;;;8.32;5.07;;;16.50;99.90;;;;;;5012317;28;20043;-60
2022/06/30 01:57:01;;;;;;;5.68;4.82;;;16.50;99.90;;;;;;5011886;28;20049;-60
2022/06/30 01:59:28;;;;;;;12.07;5.05;;;16.50;99.90;;;;;;5012372;28;20196;-60
2022/06/30 02:01:55;;;;;;;14.15;6.30;;;16.50;99.90;;;;;;5011981;28;20060;-61
2022/06/30 02:07:07;;;;;;;6.18;5.32;;;16.40;99.90;;;;;;5011712;28;20053;-60
2022/06/30 02:09:34;;;;;;;;;;;16.40;99.90;;;;;;5013080;28;20072;-60
2022/06/30 02:14:46;;;;;;;9.60;5.40;;;16.30;99.90;;;;;;5012281;28;20643;-60
2022/06/30 02:17:13;;;;;;;;;;;16.30;99.90;;;;;;5017422;28;20115;-60
2022/06/30 02:19:40;;;;;;;13.93;7.10;;;16.30;99.90;;;;;;5016323;28;19925;-60
2022/06/30 02:22:06;;;;;;;7.15;5.38;;;16.30;99.90;;;;;;5017231;28;20041;-60
2022/06/30 02:24:33;;;;;;;;;;;16.20;99.90;;;;;;5016977;28;20049;-60
2022/06/30 02:27:00;;;;;;;8.50;6.22;;;16.20;99.90;;;;;;5017039;28;19995;-60
2022/06/30 02:29:27;;;;;;;;;;;16.10;99.90;;;;;;5016593;28;20048;-60
2022/06/30 02:31:53;;;;;;;9.73;5.35;;;16.10;99.90;;;;;;5015817;28;20221;-60
2022/06/30 02:34:20;;;;;;;11.02;5.65;;;16.10;99.90;;;;;;5012043;28;20107;-60
2022/06/30 02:36:48;;;;;;;7.30;5.25;;;16.10;99.90;;;;;;5016695;28;20055;-59
2022/06/30 02:39:15;;;;;;;8.23;5.82;;;16.10;99.90;;;;;;5017006;28;20095;-61
2022/06/30 02:41:42;;;;;;;;;;;16.00;99.90;;;;;;5017173;28;20041;-60
2022/06/30 02:44:08;;;;;;;8.98;6.38;;;16.10;99.90;;;;;;5017049;28;20583;-59
2022/06/30 02:46:35;;;;;;;12.73;6.38;;;16.00;99.90;;;;;;5016387;28;20111;-60
2022/06/30 02:49:02;;;;;;;7.35;5.78;;;16.00;99.90;;;;;;5016322;28;20049;-60
2022/06/30 02:51:30;;;;;;;8.43;6.38;;;16.00;99.90;;;;;;5016009;28;20049;-60
2022/06/30 02:53:57;;;;;;;9.93;6.10;;;16.00;99.90;;;;;;5016862;28;20132;-60
2022/06/30 02:56:24;;;;;;;7.13;5.88;;;16.00;99.90;;;;;;5015819;28;20396;-60
2022/06/30 02:58:51;;;;;;;14.68;5.72;;;15.90;99.90;;;;;;5016405;28;20053;-59
2022/06/30 03:01:18;;;;;;;13.25;6.10;;;15.90;99.90;;;;;;5015237;28;20663;-59
2022/06/30 03:03:45;;;;;;;9.00;5.93;;;15.90;99.90;;;;;;5000120;28;20823;-61
2022/06/30 03:06:11;;;;;;;12.38;5.20;;;15.90;99.90;;;;;;4996642;28;20045;-59
2022/06/30 03:08:38;;;;;;;;;;;15.90;99.90;;;;;;4996332;28;20437;-59
2022/06/30 03:11:05;;;;;;;12.98;6.05;;;15.90;99.90;;;;;;4995119;28;19929;-61
2022/06/30 03:13:32;;;;;;;;;;;15.80;99.90;;;;;;4996805;28;20054;-60
2022/06/30 03:16:01;;;;;;;9.02;5.60;;;15.80;99.90;;;;;;4996671;28;20868;-60
2022/06/30 03:18:28;;;;;;;7.25;6.35;;;15.80;99.90;;;;;;5012602;28;20048;-60
2022/06/30 03:20:56;;;;;;;5.45;4.78;;;15.80;99.90;;;;;;5016173;28;20134;-60
2022/06/30 03:23:23;;;;;;;6.78;5.35;;;15.80;99.90;;;;;;5016167;28;20037;-60
2022/06/30 03:25:50;;;;;;;11.15;5.03;;;15.80;99.90;;;;;;5015161;28;20045;-61
2022/06/30 03:28:17;;;;;;;12.10;5.97;;;15.80;99.90;;;;;;5014824;28;20042;-60
2022/06/30 03:30:47;;;;;;;7.55;5.13;;;15.70;99.90;;;;;;5015862;28;20057;-59
2022/06/30 03:33:15;;;;;;;8.18;5.97;;;15.70;99.90;;;;;;5014763;28;20037;-60
2022/06/30 03:35:43;;;;;;;6.35;4.97;;;15.70;99.90;;;;;;5014079;28;20468;-60
2022/06/30 03:38:10;;;;;;;10.35;6.65;;;15.70;99.90;;;;;;5015944;28;20046;-59
2022/06/30 03:40:37;;;;;;;6.93;5.55;;;15.70;99.90;;;;;;5015642;28;20045;-60
2022/06/30 03:43:04;;;;;;;;;;;15.70;99.90;;;;;;5014649;28;20046;-60
2022/06/30 03:45:31;;;;;;;6.68;5.07;;;15.60;99.90;;;;;;5015697;28;19925;-59
2022/06/30 03:48:00;;;;;;;9.27;5.43;;;15.60;99.90;;;;;;5014774;28;20056;-59
2022/06/30 03:50:28;;;;;;;5.97;5.00;;;15.60;99.90;;;;;;5015432;28;20604;-60
2022/06/30 03:52:54;;;;;;;5.65;4.72;;;15.60;99.90;;;;;;5015227;28;20048;-60
2022/06/30 03:55:21;;;;;;;6.22;5.18;;;15.60;99.90;;;;;;5016188;28;20671;-60
2022/06/30 03:57:48;;;;;;;7.63;5.47;;;15.60;99.90;;;;;;5015139;28;20049;-59
2022/06/30 04:00:15;;;;;;;13.48;5.95;;;15.60;99.90;;;;;;5014011;28;20113;-60
2022/06/30 04:02:42;;;;;;;9.63;6.00;;;15.60;99.90;;;;;;5014956;28;20049;-60
2022/06/30 04:05:09;;;;;;;14.57;6.45;;;15.60;99.90;;;;;;5015962;28;20046;-59
2022/06/30 04:07:43;;;;;;;;;;;15.60;99.90;;;;;;5014416;28;20115;-60
2022/06/30 04:10:12;;;;;;;6.85;5.13;;;15.60;99.90;;;;;;5014971;28;19925;-60
2022/06/30 04:12:40;;;;;;;11.15;5.88;;;15.70;99.90;;;;;;5014756;28;20504;-59
2022/06/30 04:15:07;;;;;;;7.15;5.70;;;15.70;99.90;;;;;;5014279;28;20049;-50
2022/06/30 04:17:34;;;;;;;19.83;7.00;;;15.70;99.90;;;;;;5014740;28;20041;-49
2022/06/30 04:20:03;;;;;;;6.25;5.47;;;15.70;99.90;;;;;;5013356;28;20053;-51
2022/06/30 04:22:30;;;;;;;9.80;5.65;;;15.80;99.90;;;;;;5015542;28;20045;-52
2022/06/30 04:24:58;;;;;;;17.40;5.60;;;15.90;99.90;;;;;;5013073;28;20543;-51
2022/06/30 04:27:24;;;;;;;12.38;5.93;;;16.00;99.90;;;;;;5014694;28;20099;-51
2022/06/30 04:29:51;;;;;;;7.03;5.03;;;16.00;99.90;;;;;;5013904;28;20475;-52
2022/06/30 04:35:09;;;;;;;6.32;5.70;;;16.10;99.90;;;;;;5008121;28;20038;-50
2022/06/30 04:37:36;;;;;;;7.70;5.63;;;16.20;99.90;;;;;;5013361;28;20076;-48
2022/06/30 04:42:49;;;;;;;9.68;5.88;;;16.30;99.90;;;;;;5014048;28;20041;-51
2022/06/30 04:45:16;;;;;;;9.18;5.07;;;16.40;99.90;;;;;;5015253;28;20056;-51
2022/06/30 04:47:43;;;;;;;6.82;5.07;;;16.50;99.90;;;;;;5014355;28;20043;-60
2022/06/30 04:50:10;;;;;;;5.50;4.53;;;16.50;99.90;;;;;;5014321;28;20048;-58
2022/06/30 04:52:38;;;;;;;7.00;5.00;;;16.60;99.90;;;;;;5012963;28;20129;-57
2022/06/30 04:55:05;;;;;;;5.63;4.53;;;16.60;99.90;;;;;;5013829;28;20056;-54
2022/06/30 04:57:32;;;;;;;7.45;5.30;;;16.60;99.90;;;;;;5013855;28;20045;-58
2022/06/30 04:59:58;;;;;;;8.85;4.95;;;16.70;99.90;;;;;;5014334;28;20411;-55
2022/06/30 05:02:26;;;;;;;5.60;5.03;;;16.80;99.90;;;;;;5014179;28;20823;-60
2022/06/30 05:04:53;;;;;;;8.32;4.57;;;16.80;99.90;;;;;;5013530;28;20080;-53
2022/06/30 05:07:21;;;;;;;7.70;4.68;;;16.90;99.90;;;;;;5014585;28;20049;-53
2022/06/30 05:09:48;;;;;;;9.27;6.50;;;17.00;99.90;;;;;;5013448;28;20060;-57
2022/06/30 05:12:15;;;;;;;10.88;5.20;;;17.00;99.90;;;;;;5014261;28;20813;-61
2022/06/30 05:14:42;;;;;;;8.93;6.00;;;17.10;99.90;;;;;;5013480;28;20126;-57
2022/06/30 05:17:09;;;;;;;13.23;5.70;;;17.30;99.90;;;;;;5014055;28;20041;-55
2022/06/30 05:19:36;;;;;;;8.60;4.97;;;17.40;99.90;;;;;;5011421;28;20045;-54
2022/06/30 05:22:04;;;;;;;7.13;4.88;;;17.60;99.90;;;;;;5014374;28;20038;-52
2022/06/30 05:27:16;;;;;;;6.20;5.00;;;17.90;99.90;;;;;;5014055;28;20522;-54
2022/06/30 05:29:43;;;;;;;8.73;4.80;;;18.00;99.90;;;;;;5010806;28;20049;-55
2022/06/30 05:32:10;;;;;;;6.47;4.97;;;18.10;99.90;;;;;;5013558;28;20044;-54
2022/06/30 05:34:37;;;;;;;7.28;4.60;;;18.20;99.90;;;;;;5012401;28;20053;-51
2022/06/30 05:37:05;;;;;;;6.15;5.55;;;18.30;99.90;;;;;;5010266;28;20042;-53
2022/06/30 05:39:32;;;;;;;6.03;4.20;;;18.40;99.90;;;;;;5014299;28;20053;-52
2022/06/30 05:42:00;;;;;;;4.47;3.72;;;18.40;99.90;;;;;;5013157;28;20056;-59
2022/06/30 05:44:29;;;;;;;5.57;4.43;;;18.50;99.90;;;;;;5012799;28;20115;-53
2022/06/30 05:46:55;;;;;;;4.47;3.70;;;18.50;99.90;;;;;;5013650;28;20095;-53
2022/06/30 05:49:23;;;;;;;7.07;3.90;;;18.50;99.90;;;;;;5014626;28;20131;-58
2022/06/30 05:51:50;;;;;;;6.38;4.20;;;18.50;99.90;;;;;;5016837;28;20259;-54
2022/06/30 05:54:17;;;;;;;7.55;3.80;;;18.50;99.90;;;;;;5016814;28;20053;-56
2022/06/30 05:56:45;;;;;;;5.20;3.97;;;18.40;99.90;;;;;;5017981;28;20045;-55
2022/06/30 05:59:12;;;;;;;4.53;3.50;;;18.40;99.90;;;;;;5015835;28;20045;-54
2022/06/30 06:01:39;;;;;;;7.70;3.80;;;18.50;99.90;;;;;;5017882;28;20723;-59
2022/06/30 06:04:06;;;;;;;6.65;4.30;;;18.50;99.90;;;;;;5015291;28;20470;-58
2022/06/30 06:06:32;;;;;;;5.57;3.80;;;18.50;99.90;;;;;;5017908;28;20661;-56
2022/06/30 06:08:59;;;;;;;6.65;4.43;;;18.50;99.90;;;;;;5017013;28;20038;-57
2022/06/30 06:11:26;;;;;;;16.02;6.45;;;18.50;99.90;;;;;;5017584;28;20038;-55
2022/06/30 06:13:53;;;;;;;9.95;4.50;;;18.60;99.90;;;;;;5015453;28;20135;-59
2022/06/30 06:16:20;;;;;;;6.03;4.82;;;18.70;99.90;;;;;;5015951;28;20054;-52
2022/06/30 06:18:47;;;;;;;9.98;5.13;;;18.70;99.90;;;;;;5016621;28;20258;-56
2022/06/30 06:21:13;;;;;;;9.52;5.18;;;18.90;99.90;;;;;;5016967;28;20045;-57
2022/06/30 06:23:46;;;;;;;8.90;5.95;;;18.90;99.90;;;;;;5017519;28;20549;-55
2022/06/30 06:26:13;;;;;;;7.72;4.38;;;19.10;99.90;;;;;;5015423;28;20041;-65
2022/06/30 06:31:25;;;;;;;9.38;5.20;;;19.20;99.90;;;;;;5014016;28;20057;-58
2022/06/30 06:33:52;;;;;;;10.65;5.53;;;19.40;99.90;;;;;;4998815;28;20053;-65
2022/06/30 06:36:19;;;;;;;10.70;5.25;;;19.50;99.90;;;;;;5015416;28;20044;-65
2022/06/30 06:38:46;;;;;;;9.85;5.25;;;19.60;99.90;;;;;;5012587;28;20569;-66
2022/06/30 06:41:14;;;;;;;7.00;5.50;;;19.70;99.90;;;;;;5016889;28;20149;-70
2022/06/30 06:43:41;;;;;;;15.10;5.82;;;19.80;99.90;;;;;;5014874;28;20961;-67
2022/06/30 06:46:08;;;;;;;8.70;5.72;;;19.90;99.90;;;;;;5016820;28;20050;-65
2022/06/30 06:48:35;;;;;;;10.93;5.68;;;19.90;99.90;;;;;;5015604;28;20040;-64
2022/06/30 06:51:02;;;;;;;12.18;6.28;;;20.00;99.90;;;;;;5016717;28;20048;-63
2022/06/30 06:53:29;;;;;;;12.52;6.30;;;20.10;99.90;;;;;;5015103;28;20045;-64
2022/06/30 06:55:56;;;;;;;7.25;5.25;;;20.20;99.90;;;;;;5016827;28;20514;-63
2022/06/30 06:58:23;;;;;;;8.02;5.30;;;20.20;99.90;;;;;;5016063;28;20049;-64
2022/06/30 07:00:50;;;;;;;10.25;5.78;;;20.30;99.90;;;;;;5015631;28;20048;-65
2022/06/30 07:03:17;;;;;;;14.25;6.65;;;20.50;99.90;;;;;;4998909;28;20045;-69
2022/06/30 07:05:44;;;;;;;12.68;5.82;;;20.60;99.90;;;;;;5016628;28;20605;-70
2022/06/30 07:08:11;;;;;;;13.10;6.20;;;20.60;99.90;;;;;;5016299;28;20677;-68
2022/06/30 07:10:38;;;;;;;15.23;6.03;;;20.70;99.90;;;;;;5015734;28;20114;-67
2022/06/30 07:13:05;;;;;;;9.30;5.47;;;20.80;99.90;;;;;;5014767;28;20427;-66
2022/06/30 07:15:31;;;;;;;7.07;5.35;;;20.90;99.90;;;;;;5014776;28;20048;-62
2022/06/30 07:18:03;;;;;;;6.57;4.70;;;21.00;99.90;;;;;;5015853;28;20045;-63
2022/06/30 07:20:30;;;;;;;14.63;5.13;;;21.10;99.90;;;;;;5015518;28;20041;-67
2022/06/30 07:22:57;;;;;;;11.30;6.35;;;21.30;99.90;;;;;;5014510;28;20077;-67
2022/06/30 07:25:43;;;;;;;10.20;5.90;;;21.40;99.90;;;;;;5015929;28;20053;-69
2022/06/30 07:28:10;;;;;;;6.38;5.63;;;21.60;99.90;;;;;;5015877;28;20144;-69
2022/06/30 07:30:42;;;;;;;11.70;5.85;;;21.60;99.90;;;;;;5015344;28;20045;-64
2022/06/30 07:33:10;;;;;;;10.27;4.95;;;21.80;99.90;;;;;;5014641;28;20463;-63
2022/06/30 07:35:36;;;;;;;10.70;4.93;;;21.90;99.90;;;;;;5014584;28;20060;-67
2022/06/30 07:38:03;;;;;;;13.30;6.22;;;22.00;99.90;;;;;;5011449;28;20096;-69
2022/06/30 07:40:30;;;;;;;8.90;5.40;;;22.20;99.90;;;;;;5013652;28;20128;-68
2022/06/30 07:42:57;;;;;;;8.07;4.65;;;22.40;99.90;;;;;;5014629;28;20044;-63
2022/06/30 07:45:24;;;;;;;11.02;4.90;;;22.60;99.90;;;;;;5014113;28;20514;-63
2022/06/30 07:47:51;;;;;;;7.57;4.57;;;22.70;99.90;;;;;;5014937;28;20414;-63
2022/06/30 07:50:18;;;;;;;9.90;4.90;;;22.90;99.90;;;;;;5014460;28;20045;-63
2022/06/30 07:52:46;;;;;;;6.57;4.22;;;23.10;99.90;;;;;;5015603;28;20045;-64
2022/06/30 07:55:13;;;;;;;8.07;4.35;;;23.20;99.90;;;;;;5014854;28;20697;-63
2022/06/30 07:57:42;;;;;;;7.65;4.50;;;23.40;99.90;;;;;;5015510;28;20075;-65
2022/06/30 08:00:11;;;;;;;5.90;4.38;;;23.50;99.90;;;;;;5014703;28;20930;-63
2022/06/30 08:02:38;;;;;;;7.93;4.30;;;23.60;99.90;;;;;;5015168;28;20037;-63
2022/06/30 08:05:06;;;;;;;8.27;4.72;;;23.70;99.90;;;;;;5014394;28;20041;-64
2022/06/30 08:07:34;;;;;;;10.82;4.10;;;23.80;99.90;;;;;;5015365;28;20052;-69
2022/06/30 08:10:02;;;;;;;8.98;4.15;;;24.00;99.90;;;;;;5014842;28;20050;-63
2022/06/30 08:12:29;;;;;;;7.72;4.20;;;24.10;99.90;;;;;;5014820;28;20049;-65
2022/06/30 08:14:56;;;;;;;11.35;4.88;;;24.20;99.90;;;;;;5014906;28;20060;-65
2022/06/30 08:17:23;;;;;;;6.15;4.32;;;24.40;99.90;;;;;;5014679;28;20056;-64
2022/06/30 08:19:50;;;;;;;9.07;4.10;;;24.50;99.90;;;;;;5014850;28;20717;-70
2022/06/30 08:22:16;;;;;;;10.25;3.92;;;24.70;99.90;;;;;;5014775;28;20620;-65
2022/06/30 08:24:43;;;;;;;6.60;4.22;;;24.80;99.90;;;;;;5015297;28;20109;-66
2022/06/30 08:27:10;;;;;;;7.72;4.50;;;25.00;99.90;;;;;;5014385;28;20044;-66
2022/06/30 08:29:37;;;;;;;7.72;3.97;;;25.10;99.90;;;;;;5014319;28;20056;-64
2022/06/30 08:32:05;;;;;;;13.20;4.57;;;25.40;99.90;;;;;;5014377;28;20133;-66
2022/06/30 08:34:32;;;;;;;11.75;4.32;;;25.50;99.90;;;;;;5014026;28;20077;-66
2022/06/30 08:36:59;;;;;;;12.95;4.60;;;25.70;99.90;;;;;;5012498;28;20140;-64
2022/06/30 08:42:12;;;;;;;9.82;4.20;;;26.00;99.90;;;;;;5010957;28;20877;-63
2022/06/30 08:44:42;;;;;;;7.65;4.68;;;26.10;99.90;;;;;;5012062;28;20057;-65
2022/06/30 08:47:09;;;;;;;10.02;4.10;;;26.30;99.90;;;;;;5014587;28;20144;-65
2022/06/30 08:49:36;;;;;;;9.15;3.88;;;26.50;99.90;;;;;;5013869;28;20049;-65
2022/06/30 08:52:05;;;;;;;12.23;3.75;;;26.60;99.90;;;;;;5014957;28;20037;-65
2022/06/30 08:54:36;;;;;;;7.53;4.35;;;26.80;99.90;;;;;;5014578;28;20077;-65
2022/06/30 08:57:03;;;;;;;9.02;4.38;;;27.00;99.90;;;;;;5015309;28;20069;-65
2022/06/30 08:59:32;;;;;;;15.35;4.43;;;27.10;99.90;;;;;;5012022;28;20045;-63
2022/06/30 09:02:00;;;;;;;12.50;4.35;;;27.30;99.90;;;;;;5014022;28;20127;-65
2022/06/30 09:04:29;;;;;;;7.18;4.20;;;27.30;99.90;;;;;;5014318;28;20369;-64
2022/06/30 09:06:57;;;;;;;8.02;3.42;;;27.50;99.90;;;;;;5014167;28;20045;-66
2022/06/30 09:09:24;;;;;;;4.78;3.42;;;27.60;99.90;;;;;;5012955;28;20041;-65
2022/06/30 09:11:57;;;;;;;7.45;3.80;;;27.70;99.90;;;;;;5012836;28;20529;-66
2022/06/30 09:14:40;;;;;;;8.77;4.35;;;27.90;99.90;;;;;;5012960;28;20045;-65
2022/06/30 09:17:23;;;;;;;8.88;4.05;;;28.00;99.90;;;;;;5014069;28;20045;-65
2022/06/30 09:19:58;;;;;;;7.10;4.10;;;28.20;99.90;;;;;;5014769;28;20045;-65
2022/06/30 09:22:36;;;;;;;10.02;3.72;;;28.30;99.90;;;;;;5014303;28;20048;-65
2022/06/30 09:25:07;;;;;;;5.68;3.40;;;28.40;99.90;;;;;;5013515;28;20038;-65
2022/06/30 09:27:38;;;;;;;10.23;3.70;;;28.50;98.40;;;;;;5013959;28;20052;-66
2022/06/30 09:30:10;;;;;;;5.30;3.67;;;28.70;99.70;;;;;;5014216;28;20038;-66
2022/06/30 09:32:50;;;;;;;8.27;3.28;;;28.80;98.50;;;;;;5014254;28;20045;-66
2022/06/30 09:35:19;;;;;;;13.60;3.83;;;28.90;98.70;;;;;;5014469;28;20037;-66
2022/06/30 09:38:07;;;;;;;13.57;3.53;;;29.00;94.00;;;;;;5013938;28;20140;-64
2022/06/30 09:40:36;;;;;;;4.90;3.05;;;29.00;94.80;;;;;;5007250;28;20061;-65
2022/06/30 09:43:05;;;;;;;9.40;3.65;;;29.10;93.60;;;;;;5009624;28;20052;-64
2022/06/30 09:45:42;;;;;;;6.63;3.03;;;29.10;92.30;;;;;;5014780;28;20859;-65
2022/06/30 09:48:10;;;;;;;;;;;29.00;91.80;;;;;;5012914;28;20610;-65
2022/06/30 09:50:37;;;;;;;10.18;3.47;;;29.00;91.30;;;;;;5013042;28;19925;-63
2022/06/30 09:53:08;;;;;;;18.27;3.58;;;29.10;94.10;;;;;;5014299;28;20072;-66
2022/06/30 09:55:39;;;;;;;10.65;3.80;;;29.10;92.40;;;;;;5014039;28;20043;-65
2022/06/30 09:58:06;;;;;;;8.40;3.05;;;29.20;93.50;;;;;;5014492;28;20053;-65
2022/06/30 10:00:45;;;;;;;13.48;3.90;;;29.30;92.90;;;;;;5013477;28;20033;-66
2022/06/30 10:03:12;;;;;;;8.07;3.00;;;29.40;91.80;;;;;;4996332;28;20140;-66
2022/06/30 10:05:44;;;;;;;3.85;2.78;;;29.50;91.50;;;;;;5013779;28;20041;-65
2022/06/30 10:08:13;;;;;;;5.80;3.13;;;29.70;89.90;;;;;;5012597;28;20064;-64
2022/06/30 10:10:43;;;;;;;5.70;3.22;;;29.90;81.60;;;;;;5013883;28;20056;-66
2022/06/30 10:13:15;;;;;;;6.65;3.05;;;29.90;83.80;;;;;;5014604;28;20851;-65
2022/06/30 10:15:53;;;;;;;6.15;3.15;;;30.10;81.50;;;;;;5013823;28;20580;-66
2022/06/30 10:18:25;;;;;;;7.80;3.00;;;30.20;76.90;;;;;;5013228;28;20046;-66
2022/06/30 10:20:52;;;;;;;5.78;3.03;;;30.30;77.80;;;;;;5012284;28;20054;-66
2022/06/30 10:23:22;;;;;;;13.73;3.40;;;30.20;72.70;;;;;;5013441;28;20618;-65
2022/06/30 10:25:49;;;;;;;4.43;2.58;;;30.20;75.10;;;;;;5014255;28;20045;-67
2022/06/30 10:28:21;;;;;;;8.50;2.70;;;30.20;73.90;;;;;;5012096;28;20056;-67
2022/06/30 10:31:00;;;;;;;8.88;2.88;;;30.30;69.80;;;;;;5012495;28;20049;-65
2022/06/30 10:33:55;;;;;;;4.85;2.92;;;30.30;72.30;;;;;;5013835;28;20048;-66
2022/06/30 10:36:44;;;;;;;5.50;2.35;;;30.30;68.00;;;;;;4996014;28;20073;-65
2022/06/30 10:39:27;;;;;;;10.30;4.38;;;30.40;69.70;;;;;;4996490;28;20050;-66
2022/06/30 10:41:54;;;;;;;10.90;2.55;;;30.30;66.50;;;;;;5010070;28;20104;-65
2022/06/30 10:44:23;;;;;;;7.00;2.45;;;30.20;66.00;;;;;;4996665;28;20049;-66
2022/06/30 10:46:51;;;;;;;5.45;2.47;;;30.10;66.00;;;;;;4998112;28;20046;-64
2022/06/30 10:49:20;;;;;;;4.53;2.70;;;30.00;67.80;;;;;;5016569;28;20682;-66
2022/06/30 10:51:48;;;;;;;5.80;2.58;;;30.00;66.90;;;;;;5016765;28;20041;-66
2022/06/30 10:54:32;;;;;;;7.07;2.50;;;30.00;68.00;;;;;;5016644;28;20041;-66
2022/06/30 10:57:01;;;;;;;6.75;2.75;;;29.90;66.20;;;;;;5017493;28;20049;-66
2022/06/30 10:59:29;;;;;;;3.65;2.28;;;29.90;69.80;;;;;;5015878;28;20046;-65
2022/06/30 11:02:08;;;;;;;6.93;3.10;;;29.90;68.80;;;;;;5016879;28;20741;-65
2022/06/30 11:04:36;;;;;;;8.50;2.40;;;30.00;69.00;;;;;;5016715;28;20038;-64
2022/06/30 11:07:24;;;;;;;5.38;2.40;;;30.00;68.70;;;;;;5015173;28;20045;-66
2022/06/30 11:09:51;;;;;;;8.00;2.33;;;30.10;69.30;;;;;;5016914;28;20400;-64
2022/06/30 11:12:42;;;;;;;9.95;2.88;;;30.10;67.40;;;;;;5015948;28;20041;-65
2022/06/30 11:15:10;;;;;;;9.18;2.53;;;30.10;67.50;;;;;;5017027;28;20052;-66
2022/06/30 11:17:39;;;;;;;7.00;2.35;;;30.10;71.30;;;;;;5015952;28;20080;-63
2022/06/30 11:20:11;;;;;;;6.15;2.90;;;30.10;69.00;;;;;;5016246;28;20466;-62
2022/06/30 11:22:41;;;;;;;7.60;3.25;;;30.20;71.30;;;;;;5015890;28;20845;-62
2022/06/30 11:25:10;;;;;;;12.57;3.50;;;30.20;67.80;;;;;;5016326;28;20045;-62
2022/06/30 11:27:38;;;;;;;7.65;2.85;;;30.30;71.20;;;;;;5015056;28;20029;-62
2022/06/30 11:30:07;;;;;;;7.22;3.72;;;30.30;68.20;;;;;;5015837;28;20045;-62
2022/06/30 11:32:35;;;;;;;7.75;3.22;;;30.40;68.20;;;;;;5015713;28;20041;-63
2022/06/30 11:35:02;;;;;;;7.50;2.35;;;30.20;67.90;;;;;;5015855;28;20056;-62
2022/06/30 11:37:33;;;;;;;8.38;3.58;;;30.10;68.30;;;;;;5015665;28;20086;-63
2022/06/30 11:40:03;;;;;;;8.63;2.70;;;29.80;68.20;;;;;;5015848;28;20687;-62
2022/06/30 11:42:30;;;;;;;5.30;2.20;;;29.40;68.60;;;;;;5012306;28;20052;-62
2022/06/30 11:44:57;;;;;;;6.85;2.80;;;29.00;72.00;;;;;;5014360;28;20048;-62
2022/06/30 11:47:28;;;;;;;6.90;3.00;;;28.60;71.80;;;;;;5015272;28;20037;-62
2022/06/30 11:49:59;;;;;;;7.55;3.10;;;28.30;76.10;;;;;;5015482;28;20109;-62
2022/06/30 11:52:29;;;;;;;5.43;2.60;;;27.90;83.80;;;;;;5014175;28;20071;-62
2022/06/30 11:55:05;;;;;;;8.75;3.65;;;27.60;96.00;;;;;;5015288;28;20049;-62
2022/06/30 11:57:33;;;;;;;13.93;4.10;;;27.30;99.00;;;;;;5015671;28;20052;-62
2022/06/30 12:00:11;;;;;;;10.10;4.10;;;26.80;99.90;;;;;;5014912;28;20148;-62
2022/06/30 12:02:40;;;;;;;8.88;3.50;;;26.40;99.90;;;;;;5013862;28;20503;-62
2022/06/30 12:05:09;;;;;;;13.60;4.47;;;26.10;99.90;;;;;;5016146;28;20136;-61
2022/06/30 12:07:37;;;;;;;8.40;3.53;;;25.70;99.90;;;;;;5015181;28;20049;-62
2022/06/30 12:10:06;;;;;;;4.93;3.40;;;25.50;99.90;;;;;;5015733;28;20055;-62
2022/06/30 12:12:35;;;;;;;8.30;3.35;;;25.20;99.90;;;;;;5013320;28;20037;-62
2022/06/30 12:15:15;;;;;;;8.30;3.10;;;25.10;99.90;;;;;;5013993;28;20588;-62
2022/06/30 12:17:50;;;;;;;4.28;2.75;;;25.00;99.90;;;;;;5015280;28;20053;-62
2022/06/30 12:20:17;;;;;;;6.75;2.50;;;24.90;99.90;;;;;;5015124;28;20044;-62
2022/06/30 12:22:46;;;;;;;7.93;3.75;;;24.80;99.90;;;;;;5013704;28;20068;-59
2022/06/30 12:25:14;;;;;;;12.98;4.47;;;24.70;99.90;;;;;;5015561;28;20041;-60
2022/06/30 12:27:49;;;;;;;8.77;3.60;;;24.60;99.90;;;;;;5012456;28;20038;-60
2022/06/30 12:30:19;;;;;;;11.05;4.20;;;24.40;99.90;;;;;;5012826;28;20057;-59
2022/06/30 12:33:00;;;;;;;10.95;4.90;;;24.20;99.90;;;;;;5015353;28;20069;-60
2022/06/30 12:35:32;;;;;;;9.15;4.07;;;23.90;99.90;;;;;;5013068;28;20064;-61
2022/06/30 12:38:28;;;;;;;10.13;4.65;;;23.60;99.90;;;;;;5014890;28;20045;-61
2022/06/30 12:40:55;;;;;;;8.52;4.38;;;23.40;99.90;;;;;;5006386;28;20844;-60
2022/06/30 12:43:22;;;;;;;5.65;4.00;;;23.50;99.90;;;;;;5013111;28;20045;-61
2022/06/30 12:45:52;;;;;;;7.20;4.25;;;23.60;99.90;;;;;;5013715;28;20705;-59
2022/06/30 12:48:41;;;;;;;13.23;4.70;;;24.00;99.90;;;;;;5014063;28;20073;-60
2022/06/30 12:51:10;;;;;;;6.90;3.70;;;24.60;99.90;;;;;;5013457;28;20049;-59
2022/06/30 12:53:39;;;;;;;7.72;3.42;;;25.20;99.90;;;;;;5015160;28;20314;-61
2022/06/30 12:56:11;;;;;;;5.97;3.22;;;25.90;99.90;;;;;;5013007;28;20057;-61
2022/06/30 12:58:59;;;;;;;13.73;5.57;;;26.30;99.90;;;;;;5014452;28;20049;-61
2022/06/30 13:01:38;;;;;;;8.38;4.15;;;26.50;99.90;;;;;;5014253;28;20045;-62
2022/06/30 13:04:21;;;;;;;14.02;5.20;;;26.50;99.90;;;;;;5015262;28;20041;-62
2022/06/30 13:06:51;;;;;;;10.32;4.70;;;26.50;99.90;;;;;;5012745;28;20065;-61
2022/06/30 13:09:21;;;;;;;12.02;4.25;;;26.50;99.90;;;;;;5012707;28;20045;-62
2022/06/30 13:11:50;;;;;;;8.85;4.05;;;26.50;99.90;;;;;;5014931;28;20042;-62
2022/06/30 13:14:19;;;;;;;7.15;3.97;;;26.40;99.90;;;;;;5013955;28;20047;-62
2022/06/30 13:16:48;;;;;;;5.95;3.78;;;26.30;99.90;;;;;;5014779;28;20148;-62
2022/06/30 13:19:17;;;;;;;8.32;4.40;;;26.30;99.90;;;;;;5013566;28;20095;-62